createdAt,value
2019-02-21T00:00:01.864Z,99997.42
2019-02-21T00:02:33.381Z,100004.22
2019-02-21T00:05:02.813Z,100005.06
2019-02-21T00:07:33.413Z,100000.23
2019-02-21T00:10:03.401Z,100003.43
2019-02-21T00:12:32.847Z,100006.86
2019-02-21T00:15:02.330Z,100012.78
2019-02-21T00:17:32.103Z,100011.96
2019-02-21T00:20:02.010Z,100009.79
2019-02-21T00:22:32.220Z,100013.78
2019-02-21T00:25:04.710Z,100012.84
2019-02-21T00:27:34.128Z,100015.79
2019-02-21T00:30:04.408Z,100021.73
2019-02-21T00:32:37.681Z,100012.89
2019-02-21T00:35:06.869Z,100023.80
2019-02-21T00:37:37.466Z,100019.95
2019-02-21T00:40:07.141Z,100013.57
2019-02-21T00:42:36.855Z,100014.88
2019-02-21T00:45:06.452Z,100018.27
2019-02-21T00:47:35.626Z,100019.14
2019-02-21T00:50:07.556Z,100015.44
2019-02-21T00:52:37.068Z,100022.36
2019-02-21T00:55:07.115Z,100022.59
2019-02-21T00:57:36.842Z,100024.20
2019-02-21T01:00:07.361Z,100020.67
2019-02-21T01:02:37.092Z,100025.47
2019-02-21T01:05:10.983Z,100028.34
2019-02-21T01:07:44.776Z,100031.56
2019-02-21T01:10:19.417Z,100029.39
2019-02-21T01:12:49.072Z,100023.63
2019-02-21T01:15:19.531Z,100026.41
2019-02-21T01:17:49.848Z,100033.97
2019-02-21T01:20:19.375Z,100032.11
2019-02-21T01:22:49.428Z,100030.17
2019-02-21T01:25:19.128Z,100029.36
2019-02-21T01:27:48.975Z,100036.19
2019-02-21T01:30:18.237Z,100036.00
2019-02-21T01:32:48.302Z,100027.44
2019-02-21T01:35:18.512Z,100033.38
2019-02-21T01:37:47.707Z,100036.00
2019-02-21T01:40:17.439Z,100037.16
2019-02-21T01:42:47.027Z,100038.05
2019-02-21T01:45:18.567Z,100036.91
2019-02-21T01:47:53.796Z,100034.98
2019-02-21T01:50:23.754Z,100045.98
2019-02-21T01:52:55.854Z,100046.77
2019-02-21T01:55:26.328Z,100045.50
2019-02-21T01:57:56.570Z,100047.52
2019-02-21T02:00:27.979Z,100048.49
2019-02-21T02:02:57.752Z,100049.55
2019-02-21T02:05:29.393Z,100047.59
2019-02-21T02:08:03.119Z,100047.81
2019-02-21T02:10:33.295Z,100042.36
2019-02-21T02:13:23.472Z,100038.14
2019-02-21T02:15:41.523Z,100036.38
2019-02-21T02:18:11.557Z,100040.75
2019-02-21T02:20:41.956Z,100042.88
2019-02-21T02:23:12.180Z,100046.14
2019-02-21T02:25:42.403Z,100052.39
2019-02-21T02:28:12.794Z,100059.00
2019-02-21T02:30:45.018Z,100055.94
2019-02-21T02:33:14.494Z,100058.37
2019-02-21T02:35:43.998Z,100051.38
2019-02-21T02:38:13.443Z,100055.70
2019-02-21T02:40:43.920Z,100055.73
2019-02-21T02:43:13.615Z,100049.64
2019-02-21T02:45:44.867Z,100047.99
2019-02-21T02:48:14.553Z,100048.92
2019-02-21T02:50:44.324Z,100040.59
2019-02-21T02:53:14.400Z,100039.17
2019-02-21T02:55:44.783Z,100045.21
2019-02-21T02:58:18.598Z,100052.85
2019-02-21T03:00:48.360Z,100057.08
2019-02-21T03:03:19.085Z,100059.73
2019-02-21T03:05:49.135Z,100058.14
2019-02-21T03:08:23.660Z,100059.45
2019-02-21T03:10:53.705Z,100053.84
2019-02-21T03:13:23.846Z,100059.67
2019-02-21T03:15:53.024Z,100056.84
2019-02-21T03:18:28.592Z,100064.38
2019-02-21T03:20:58.298Z,100056.59
2019-02-21T03:23:28.017Z,100059.19
2019-02-21T03:25:58.469Z,100053.28
2019-02-21T03:28:29.985Z,100058.63
2019-02-21T03:31:00.223Z,100060.53
2019-02-21T03:33:30.020Z,100066.28
2019-02-21T03:35:59.550Z,100065.48
2019-02-21T03:38:29.045Z,100072.41
2019-02-21T03:40:58.740Z,100079.67
2019-02-21T03:43:29.032Z,100080.78
2019-02-21T03:45:59.036Z,100076.44
2019-02-21T03:48:30.331Z,100076.55
2019-02-21T03:51:01.832Z,100079.36
2019-02-21T03:53:31.027Z,100082.25
2019-02-21T03:56:00.778Z,100070.52
2019-02-21T03:58:30.525Z,100078.40
2019-02-21T04:00:59.957Z,100083.80
2019-02-21T04:03:31.426Z,100083.86
2019-02-21T04:06:01.248Z,100083.77
2019-02-21T04:08:30.814Z,100088.23
2019-02-21T04:11:01.110Z,100089.25
2019-02-21T04:13:32.313Z,100093.30
2019-02-21T04:16:02.933Z,100092.89
2019-02-21T04:18:33.576Z,100093.23
2019-02-21T04:21:03.004Z,100097.44
2019-02-21T04:23:33.050Z,100094.37
2019-02-21T04:26:02.244Z,100095.52
2019-02-21T04:28:32.775Z,100098.97
2019-02-21T04:31:04.005Z,100103.09
2019-02-21T04:33:34.490Z,100100.25
2019-02-21T04:36:04.065Z,100102.17
2019-02-21T04:38:33.792Z,100093.25
2019-02-21T04:41:03.781Z,100093.50
2019-02-21T04:43:34.594Z,100089.08
2019-02-21T04:46:07.869Z,100087.27
2019-02-21T04:48:39.017Z,100090.27
2019-02-21T04:51:13.923Z,100092.99
2019-02-21T04:53:43.543Z,100088.16
2019-02-21T04:56:13.601Z,100093.21
2019-02-21T04:58:44.541Z,100088.02
2019-02-21T05:01:14.004Z,100083.31
2019-02-21T05:03:44.342Z,100075.71
2019-02-21T05:06:16.099Z,100083.85
2019-02-21T05:08:48.167Z,100082.74
2019-02-21T05:11:18.292Z,100076.30
2019-02-21T05:13:48.717Z,100078.14
2019-02-21T05:16:18.139Z,100081.50
2019-02-21T05:18:47.860Z,100090.59
2019-02-21T05:21:18.140Z,100088.70
2019-02-21T05:23:47.576Z,100091.55
2019-02-21T05:26:24.079Z,100089.08
2019-02-21T05:28:54.152Z,100083.64
2019-02-21T05:31:42.785Z,100089.82
2019-02-21T05:34:37.861Z,100088.36
2019-02-21T05:37:35.006Z,100080.03
2019-02-21T05:40:28.762Z,100085.27
2019-02-21T05:43:25.513Z,100081.37
2019-02-21T05:46:15.837Z,100081.66
2019-02-21T05:49:23.029Z,100089.00
2019-02-21T05:52:01.587Z,100082.36
2019-02-21T05:54:50.717Z,100083.98
2019-02-21T05:57:33.919Z,100085.47
2019-02-21T06:00:25.818Z,100083.67
2019-02-21T06:03:01.566Z,100080.47
2019-02-21T06:05:56.109Z,100087.39
2019-02-21T06:08:50.119Z,100083.88
2019-02-21T06:11:35.405Z,100081.94
2019-02-21T06:14:39.540Z,100086.80
2019-02-21T06:17:27.210Z,100081.30
2019-02-21T06:20:28.065Z,100093.14
2019-02-21T06:23:07.030Z,100098.69
2019-02-21T06:26:00.895Z,100096.66
2019-02-21T06:28:41.516Z,100103.09
2019-02-21T06:31:17.490Z,100113.42
2019-02-21T06:33:49.377Z,100111.61
2019-02-21T06:36:18.631Z,100120.65
2019-02-21T06:38:50.050Z,100117.80
2019-02-21T06:41:21.415Z,100113.76
2019-02-21T06:43:52.805Z,100107.09
2019-02-21T06:46:22.465Z,100115.95
2019-02-21T06:48:53.945Z,100118.11
2019-02-21T06:51:25.439Z,100113.19
2019-02-21T06:53:54.902Z,100111.91
2019-02-21T06:56:30.164Z,100118.42
2019-02-21T06:59:00.894Z,100131.48
2019-02-21T07:01:33.502Z,100127.55
2019-02-21T07:04:03.447Z,100133.89
2019-02-21T07:06:33.306Z,100128.97
2019-02-21T07:09:04.229Z,100135.89
2019-02-21T07:11:33.986Z,100144.98
2019-02-21T07:14:07.648Z,100146.74
2019-02-21T07:16:39.150Z,100150.78
2019-02-21T07:19:10.903Z,100144.16
2019-02-21T07:21:40.369Z,100154.74
2019-02-21T07:24:09.846Z,100149.81
2019-02-21T07:26:39.103Z,100151.80
2019-02-21T07:29:10.952Z,100152.70
2019-02-21T07:31:40.686Z,100161.69
2019-02-21T07:34:16.087Z,100173.11
2019-02-21T07:36:46.798Z,100169.91
2019-02-21T07:39:19.762Z,100176.55
2019-02-21T07:41:49.984Z,100177.23
2019-02-21T07:44:18.999Z,100179.33
2019-02-21T07:46:49.313Z,100187.78
2019-02-21T07:49:18.747Z,100179.06
2019-02-21T07:51:50.962Z,100173.30
2019-02-21T07:54:20.779Z,100182.06
2019-02-21T07:57:01.946Z,100177.64
2019-02-21T07:59:32.611Z,100186.40
2019-02-21T08:02:04.379Z,100187.12
2019-02-21T08:04:38.482Z,100192.20
2019-02-21T08:07:07.689Z,100188.95
2019-02-21T08:09:37.927Z,100178.88
2019-02-21T08:12:07.097Z,100171.09
2019-02-21T08:14:37.562Z,100184.46
2019-02-21T08:17:07.533Z,100195.12
2019-02-21T08:19:37.388Z,100206.84
2019-02-21T08:22:06.918Z,100211.23
2019-02-21T08:24:36.207Z,100217.33
2019-02-21T08:27:05.452Z,100214.87
2019-02-21T08:29:40.056Z,100220.11
2019-02-21T08:32:09.794Z,100227.30
2019-02-21T08:34:42.688Z,100221.48
2019-02-21T08:37:11.869Z,100224.16
2019-02-21T08:39:45.479Z,100223.87
2019-02-21T08:42:19.142Z,100218.27
2019-02-21T08:44:48.805Z,100210.77
2019-02-21T08:47:19.416Z,100217.23
2019-02-21T08:49:50.019Z,100214.48
2019-02-21T08:52:22.716Z,100223.41
2019-02-21T08:54:59.883Z,100223.02
2019-02-21T08:57:23.432Z,100228.70
2019-02-21T08:59:52.888Z,100227.03
2019-02-21T09:02:24.505Z,100229.03
2019-02-21T09:04:54.615Z,100221.69
2019-02-21T09:07:23.888Z,100228.73
2019-02-21T09:09:53.419Z,100231.77
2019-02-21T09:12:26.489Z,100240.59
2019-02-21T09:14:57.106Z,100236.98
2019-02-21T09:17:26.705Z,100229.32
2019-02-21T09:19:56.608Z,100239.96
2019-02-21T09:22:26.951Z,100235.57
2019-02-21T09:24:56.343Z,100239.60
2019-02-21T09:27:25.892Z,100230.95
2019-02-21T09:29:55.358Z,100237.69
2019-02-21T09:32:25.412Z,100238.95
2019-02-21T09:34:55.208Z,100234.34
2019-02-21T09:37:25.120Z,100246.08
2019-02-21T09:39:56.568Z,100248.80
2019-02-21T09:42:27.083Z,100248.79
2019-02-21T09:44:56.518Z,100253.51
2019-02-21T09:47:26.041Z,100244.54
2019-02-21T09:49:56.531Z,100241.38
2019-02-21T09:52:27.187Z,100242.73
2019-02-21T09:54:56.463Z,100241.23
2019-02-21T09:57:25.936Z,100244.94
2019-02-21T09:59:57.941Z,100241.22
2019-02-21T10:02:27.445Z,100247.34
2019-02-21T10:05:04.514Z,100253.09
2019-02-21T10:07:27.535Z,100254.73
2019-02-21T10:09:56.842Z,100251.41
2019-02-21T10:12:27.970Z,100247.78
2019-02-21T10:14:58.191Z,100241.67
2019-02-21T10:17:27.389Z,100237.39
2019-02-21T10:19:57.146Z,100239.63
2019-02-21T10:22:32.876Z,100229.59
2019-02-21T10:25:02.076Z,100238.78
2019-02-21T10:27:34.831Z,100239.87
2019-02-21T10:30:05.730Z,100243.34
2019-02-21T10:32:37.089Z,100240.36
2019-02-21T10:35:06.594Z,100243.06
2019-02-21T10:37:36.088Z,100242.25
2019-02-21T10:40:06.041Z,100240.15
2019-02-21T10:42:35.516Z,100244.66
2019-02-21T10:45:05.185Z,100243.34
2019-02-21T10:47:34.422Z,100231.71
2019-02-21T10:50:03.919Z,100227.42
2019-02-21T10:52:33.166Z,100231.27
2019-02-21T10:55:04.583Z,100229.92
2019-02-21T10:57:35.042Z,100223.58
2019-02-21T11:00:08.380Z,100226.98
2019-02-21T11:02:37.799Z,100223.21
2019-02-21T11:05:07.923Z,100223.61
2019-02-21T11:07:37.096Z,100216.08
2019-02-21T11:10:07.640Z,100207.77
2019-02-21T11:12:37.423Z,100211.70
2019-02-21T11:15:10.752Z,100209.53
2019-02-21T11:17:40.731Z,100206.84
2019-02-21T11:20:13.018Z,100202.56
2019-02-21T11:22:42.247Z,100189.63
2019-02-21T11:25:11.775Z,100190.17
2019-02-21T11:27:43.705Z,100195.13
2019-02-21T11:30:14.996Z,100193.99
2019-02-21T11:32:44.188Z,100190.62
2019-02-21T11:35:14.692Z,100183.27
2019-02-21T11:37:46.789Z,100180.65
2019-02-21T11:40:16.019Z,100176.83
2019-02-21T11:42:45.365Z,100174.88
2019-02-21T11:45:15.789Z,100172.91
2019-02-21T11:47:45.258Z,100168.91
2019-02-21T11:50:15.836Z,100165.51
2019-02-21T11:52:45.068Z,100163.36
2019-02-21T11:55:17.770Z,100163.12
2019-02-21T11:57:46.983Z,100148.92
2019-02-21T12:00:20.494Z,100134.84
2019-02-21T12:02:51.316Z,100133.48
2019-02-21T12:05:30.374Z,100131.77
2019-02-21T12:07:56.195Z,100121.49
2019-02-21T12:10:26.387Z,100123.16
2019-02-21T12:12:56.253Z,100126.77
2019-02-21T12:15:32.096Z,100132.77
2019-02-21T12:18:02.167Z,100137.28
2019-02-21T12:20:41.843Z,100127.59
2019-02-21T12:23:11.191Z,100126.59
2019-02-21T12:25:43.313Z,100133.33
2019-02-21T12:28:16.484Z,100128.94
2019-02-21T12:31:00.101Z,100126.72
2019-02-21T12:33:31.583Z,100128.87
2019-02-21T12:36:00.876Z,100127.85
2019-02-21T12:38:30.908Z,100136.38
2019-02-21T12:41:02.292Z,100132.28
2019-02-21T12:43:32.910Z,100128.47
2019-02-21T12:46:02.219Z,100127.83
2019-02-21T12:48:31.420Z,100129.08
2019-02-21T12:51:04.713Z,100124.56
2019-02-21T12:53:35.351Z,100132.16
2019-02-21T12:56:04.780Z,100133.00
2019-02-21T12:58:51.862Z,100128.59
2019-02-21T13:01:21.914Z,100131.46
2019-02-21T13:03:52.405Z,100127.14
2019-02-21T13:06:21.664Z,100133.44
2019-02-21T13:08:50.954Z,100136.88
2019-02-21T13:11:22.110Z,100137.31
2019-02-21T13:13:59.429Z,100135.47
2019-02-21T13:16:34.444Z,100135.03
2019-02-21T13:19:13.168Z,100125.46
2019-02-21T13:21:58.453Z,100120.53
2019-02-21T13:24:31.130Z,100113.38
2019-02-21T13:27:35.862Z,100110.72
2019-02-21T13:30:17.731Z,100115.47
2019-02-21T13:32:52.291Z,100114.47
2019-02-21T13:35:54.673Z,100102.80
2019-02-21T13:38:27.321Z,100099.24
2019-02-21T13:41:09.533Z,100098.91
2019-02-21T13:43:40.025Z,100101.27
2019-02-21T13:46:37.299Z,100095.28
2019-02-21T13:49:14.161Z,100093.95
2019-02-21T13:52:01.392Z,100093.87
2019-02-21T13:54:42.037Z,100095.78
2019-02-21T13:57:15.495Z,100089.98
2019-02-21T13:59:50.803Z,100087.75
2019-02-21T14:02:25.188Z,100081.91
2019-02-21T14:04:59.293Z,100078.27
2019-02-21T14:07:37.146Z,100072.46
2019-02-21T14:10:10.778Z,100071.54
2019-02-21T14:12:42.945Z,100072.57
2019-02-21T14:15:29.900Z,100074.92
2019-02-21T14:17:59.839Z,100072.86
2019-02-21T14:20:29.252Z,100078.84
2019-02-21T14:23:00.184Z,100081.97
2019-02-21T14:25:40.028Z,100077.95
2019-02-21T14:28:00.457Z,100078.36
2019-02-21T14:30:31.184Z,100077.31
2019-02-21T14:33:02.952Z,100082.72
2019-02-21T14:35:32.475Z,100095.25
2019-02-21T14:38:02.713Z,100094.85
2019-02-21T14:40:32.517Z,100095.66
2019-02-21T14:43:01.823Z,100091.11
2019-02-21T14:45:35.255Z,100093.48
2019-02-21T14:48:04.722Z,100088.59
2019-02-21T14:50:36.053Z,100088.08
2019-02-21T14:53:05.750Z,100094.20
2019-02-21T14:55:34.956Z,100100.09
2019-02-21T14:58:06.972Z,100105.34
2019-02-21T15:00:36.496Z,100098.27
2019-02-21T15:03:06.107Z,100092.41
2019-02-21T15:05:39.560Z,100101.78
2019-02-21T15:08:08.946Z,100104.87
2019-02-21T15:10:38.953Z,100105.39
2019-02-21T15:13:10.432Z,100102.69
2019-02-21T15:15:40.712Z,100110.28
2019-02-21T15:18:11.414Z,100106.13
2019-02-21T15:20:48.613Z,100103.24
2019-02-21T15:23:18.193Z,100097.55
2019-02-21T15:25:47.754Z,100097.27
2019-02-21T15:28:17.607Z,100095.43
2019-02-21T15:30:46.857Z,100096.70
2019-02-21T15:33:16.114Z,100095.75
2019-02-21T15:35:45.882Z,100092.52
2019-02-21T15:38:20.034Z,100097.05
2019-02-21T15:40:47.133Z,100098.97
2019-02-21T15:43:16.664Z,100094.42
2019-02-21T15:45:46.636Z,100100.67
2019-02-21T15:48:16.340Z,100107.23
2019-02-21T15:50:45.747Z,100104.72
2019-02-21T15:53:14.998Z,100099.82
2019-02-21T15:55:44.303Z,100107.37
2019-02-21T15:58:14.055Z,100100.88
2019-02-21T16:00:44.271Z,100107.31
2019-02-21T16:03:13.556Z,100111.18
2019-02-21T16:05:43.295Z,100112.64
2019-02-21T16:08:17.486Z,100106.27
2019-02-21T16:10:50.691Z,100108.91
2019-02-21T16:13:22.648Z,100103.73
2019-02-21T16:15:52.331Z,100106.30
2019-02-21T16:18:25.802Z,100109.86
2019-02-21T16:20:56.057Z,100122.01
2019-02-21T16:23:27.234Z,100124.59
2019-02-21T16:25:57.961Z,100122.70
2019-02-21T16:28:27.893Z,100125.14
2019-02-21T16:30:57.352Z,100121.42
2019-02-21T16:33:27.630Z,100128.73
2019-02-21T16:35:57.514Z,100120.65
2019-02-21T16:38:26.720Z,100132.49
2019-02-21T16:40:56.186Z,100135.22
2019-02-21T16:43:25.393Z,100135.05
2019-02-21T16:45:54.579Z,100135.28
2019-02-21T16:48:23.808Z,100139.50
2019-02-21T16:50:52.992Z,100141.45
2019-02-21T16:53:22.962Z,100147.98
2019-02-21T16:55:52.182Z,100147.48
2019-02-21T16:58:21.486Z,100147.17
2019-02-21T17:00:55.956Z,100149.44
2019-02-21T17:03:21.849Z,100148.24
2019-02-21T17:05:51.367Z,100159.23
2019-02-21T17:08:20.948Z,100159.47
2019-02-21T17:10:50.967Z,100163.49
2019-02-21T17:13:20.531Z,100166.72
2019-02-21T17:15:51.835Z,100163.88
2019-02-21T17:18:21.280Z,100162.02
2019-02-21T17:20:52.696Z,100170.42
2019-02-21T17:23:23.214Z,100173.78
2019-02-21T17:25:52.497Z,100167.39
2019-02-21T17:28:21.973Z,100166.69
2019-02-21T17:30:51.223Z,100173.31
2019-02-21T17:33:22.145Z,100169.50
2019-02-21T17:35:51.465Z,100176.34
2019-02-21T17:38:20.608Z,100182.78
2019-02-21T17:40:50.465Z,100175.38
2019-02-21T17:43:22.745Z,100173.95
2019-02-21T17:45:52.300Z,100169.12
2019-02-21T17:48:28.147Z,100177.22
2019-02-21T17:51:01.514Z,100179.47
2019-02-21T17:53:38.005Z,100179.63
2019-02-21T17:56:07.092Z,100181.54
2019-02-21T17:58:39.379Z,100184.58
2019-02-21T18:01:08.844Z,100183.88
2019-02-21T18:03:38.021Z,100197.58
2019-02-21T18:06:19.616Z,100195.98
2019-02-21T18:08:51.165Z,100193.14
2019-02-21T18:11:23.175Z,100187.40
2019-02-21T18:13:52.684Z,100187.72
2019-02-21T18:16:23.628Z,100191.77
2019-02-21T18:18:52.887Z,100197.77
2019-02-21T18:21:22.422Z,100199.91
2019-02-21T18:23:52.103Z,100198.70
2019-02-21T18:26:22.756Z,100196.91
2019-02-21T18:28:51.947Z,100196.73
2019-02-21T18:31:21.372Z,100201.64
2019-02-21T18:33:50.577Z,100215.84
2019-02-21T18:36:19.928Z,100215.81
2019-02-21T18:38:49.182Z,100208.20
2019-02-21T18:41:18.460Z,100205.35
2019-02-21T18:43:47.699Z,100205.56
2019-02-21T18:46:17.091Z,100211.58
2019-02-21T18:48:46.438Z,100212.45
2019-02-21T18:51:18.848Z,100221.06
2019-02-21T18:53:47.448Z,100216.34
2019-02-21T18:56:18.260Z,100218.14
2019-02-21T18:58:47.503Z,100215.49
2019-02-21T19:01:16.841Z,100210.73
2019-02-21T19:03:46.118Z,100205.77
2019-02-21T19:06:16.158Z,100207.55
2019-02-21T19:08:45.663Z,100210.19
2019-02-21T19:11:15.173Z,100210.47
2019-02-21T19:13:45.566Z,100210.47
2019-02-21T19:16:14.800Z,100216.73
2019-02-21T19:18:44.479Z,100217.48
2019-02-21T19:21:14.865Z,100215.81
2019-02-21T19:23:44.987Z,100223.11
2019-02-21T19:26:15.801Z,100224.68
2019-02-21T19:28:45.303Z,100216.09
2019-02-21T19:31:19.454Z,100220.57
2019-02-21T19:33:48.973Z,100221.39
2019-02-21T19:36:20.761Z,100224.97
2019-02-21T19:38:50.025Z,100229.83
2019-02-21T19:41:20.403Z,100235.33
2019-02-21T19:43:50.292Z,100229.78
2019-02-21T19:46:19.972Z,100241.08
2019-02-21T19:48:51.626Z,100239.94
2019-02-21T19:51:23.044Z,100248.69
2019-02-21T19:53:52.263Z,100246.55
2019-02-21T19:56:26.057Z,100251.80
2019-02-21T19:58:55.878Z,100256.69
2019-02-21T20:01:25.281Z,100266.26
2019-02-21T20:03:55.577Z,100270.30
2019-02-21T20:06:26.443Z,100270.00
2019-02-21T20:08:56.810Z,100272.85
2019-02-21T20:11:27.419Z,100276.75
2019-02-21T20:14:03.644Z,100278.93
2019-02-21T20:16:32.874Z,100282.43
2019-02-21T20:19:02.043Z,100279.79
2019-02-21T20:21:32.316Z,100283.29
2019-02-21T20:24:01.970Z,100283.75
2019-02-21T20:26:32.128Z,100285.94
2019-02-21T20:29:01.327Z,100282.30
2019-02-21T20:31:30.978Z,100283.16
2019-02-21T20:34:01.607Z,100273.45
2019-02-21T20:36:32.329Z,100275.80
2019-02-21T20:39:01.805Z,100279.45
2019-02-21T20:41:31.513Z,100273.44
2019-02-21T20:44:02.891Z,100281.09
2019-02-21T20:46:32.114Z,100279.06
2019-02-21T20:49:01.342Z,100277.55
2019-02-21T20:51:30.581Z,100278.20
2019-02-21T20:54:03.635Z,100269.78
2019-02-21T20:56:32.878Z,100273.74
2019-02-21T20:59:12.229Z,100272.36
2019-02-21T21:01:41.828Z,100279.80
2019-02-21T21:04:13.280Z,100279.27
2019-02-21T21:06:42.808Z,100281.59
2019-02-21T21:09:12.486Z,100287.78
2019-02-21T21:11:42.534Z,100289.17
2019-02-21T21:14:15.831Z,100291.17
2019-02-21T21:16:46.057Z,100293.03
2019-02-21T21:19:15.616Z,100292.69
2019-02-21T21:21:45.948Z,100299.66
2019-02-21T21:24:16.424Z,100298.37
2019-02-21T21:26:47.181Z,100300.37
2019-02-21T21:29:16.425Z,100300.76
2019-02-21T21:31:46.317Z,100301.94
2019-02-21T21:34:17.660Z,100311.02
2019-02-21T21:36:48.210Z,100312.02
2019-02-21T21:39:17.728Z,100312.02
2019-02-21T21:41:47.529Z,100314.00
2019-02-21T21:44:17.804Z,100311.55
2019-02-21T21:46:48.212Z,100316.46
2019-02-21T21:49:17.707Z,100316.50
2019-02-21T21:51:48.235Z,100317.79
2019-02-21T21:54:18.296Z,100315.72
2019-02-21T21:56:47.473Z,100318.13
2019-02-21T21:59:17.011Z,100317.66
2019-02-21T22:01:47.672Z,100324.20
2019-02-21T22:04:17.225Z,100328.64
2019-02-21T22:06:53.326Z,100321.63
2019-02-21T22:09:23.393Z,100312.90
2019-02-21T22:11:52.603Z,100318.23
2019-02-21T22:14:21.792Z,100324.14
2019-02-21T22:16:51.050Z,100323.55
2019-02-21T22:19:20.257Z,100314.23
2019-02-21T22:21:49.611Z,100312.95
2019-02-21T22:24:18.828Z,100316.42
2019-02-21T22:26:48.068Z,100318.20
2019-02-21T22:29:18.040Z,100317.03
2019-02-21T22:31:47.225Z,100320.22
2019-02-21T22:34:16.434Z,100318.50
2019-02-21T22:36:45.888Z,100307.70
2019-02-21T22:39:17.730Z,100319.16
2019-02-21T22:41:47.740Z,100322.66
2019-02-21T22:44:17.743Z,100331.06
2019-02-21T22:46:47.881Z,100330.42
2019-02-21T22:49:17.061Z,100335.57
2019-02-21T22:51:50.724Z,100328.81
2019-02-21T22:54:20.157Z,100327.38
2019-02-21T22:56:50.358Z,100327.02
2019-02-21T22:59:20.569Z,100320.83
2019-02-21T23:01:54.206Z,100323.98
2019-02-21T23:04:32.926Z,100327.09
2019-02-21T23:07:48.635Z,100330.28
2019-02-21T23:10:22.136Z,100331.74
2019-02-21T23:12:53.914Z,100334.39
2019-02-21T23:15:23.763Z,100334.03
2019-02-21T23:17:54.717Z,100346.30
2019-02-21T23:20:24.931Z,100346.69
2019-02-21T23:22:54.417Z,100344.29
2019-02-21T23:25:25.003Z,100339.60
2019-02-21T23:27:58.284Z,100343.58
2019-02-21T23:30:29.744Z,100343.36
2019-02-21T23:32:59.498Z,100349.11
2019-02-21T23:35:30.057Z,100353.88
2019-02-21T23:38:02.646Z,100359.60
2019-02-21T23:40:31.801Z,100352.94
2019-02-21T23:43:01.003Z,100360.45
2019-02-21T23:45:30.956Z,100357.73
2019-02-21T23:48:05.663Z,100358.77
2019-02-21T23:50:35.902Z,100363.13
2019-02-21T23:53:07.406Z,100361.62
2019-02-21T23:55:38.472Z,100373.78
2019-02-21T23:58:10.422Z,100374.83
